Time;durP1;ratioP1;P1;durP2;ratioP2;P2;SDS_P1;SDS_P2;PMS_P1;PMS_P2;Temp;Humidity;BMP_temperature;BMP_pressure;BME280_temperature;BME280_humidity;BME280_pressure;Samples;Min_cycle;Max_cycle;Signal;HPM_P1;HPM_P2
2022/09/18 00:01:29;;;;;;;7.03;2.00;;;;;;;10.95;100.00;101312.00;4968394;28;20431;-75
2022/09/18 00:03:57;;;;;;;5.25;1.67;;;;;;;10.93;100.00;101306.16;4986195;28;20528;-75
2022/09/18 00:06:25;;;;;;;6.65;2.42;;;;;;;10.96;100.00;101308.44;4983146;28;20089;-74
2022/09/18 00:08:53;;;;;;;7.60;0.98;;;;;;;10.98;100.00;101301.31;4972185;28;20033;-75
2022/09/18 00:11:21;;;;;;;8.40;2.28;;;;;;;10.87;100.00;101300.56;4987124;28;20039;-75
2022/09/18 00:13:47;;;;;;;8.25;1.38;;;;;;;10.87;100.00;101299.75;4983915;28;20026;-75
2022/09/18 00:16:14;;;;;;;10.35;1.77;;;;;;;10.89;100.00;101298.66;4970015;28;20105;-75
2022/09/18 00:18:40;;;;;;;11.10;1.75;;;;;;;10.89;100.00;101300.44;4970196;28;20483;-75
2022/09/18 00:21:18;;;;;;;6.72;1.42;;;;;;;10.93;100.00;101303.56;4969416;28;20040;-76
2022/09/18 00:23:44;;;;;;;9.55;1.60;;;;;;;10.86;100.00;101300.72;4987944;28;20040;-76
2022/09/18 00:26:12;;;;;;;5.18;1.40;;;;;;;10.86;100.00;101298.13;4982317;28;20033;-74
2022/09/18 00:28:38;;;;;;;9.05;1.60;;;;;;;10.82;100.00;101295.00;4984463;28;20040;-74
2022/09/18 00:31:10;;;;;;;4.35;1.50;;;;;;;10.84;100.00;101290.47;4990474;28;20037;-74
2022/09/18 00:33:36;;;;;;;9.85;1.50;;;;;;;10.88;100.00;101291.81;5001640;28;20066;-74
2022/09/18 00:36:03;;;;;;;6.30;1.52;;;;;;;10.95;100.00;101292.06;4984518;28;20030;-77
2022/09/18 00:38:31;;;;;;;9.27;1.42;;;;;;;10.90;100.00;101294.25;4986345;28;20035;-75
2022/09/18 00:41:01;;;;;;;7.82;1.27;;;;;;;10.91;100.00;101296.72;4990634;28;20061;-75
2022/09/18 00:43:30;;;;;;;6.85;1.70;;;;;;;10.88;100.00;101288.41;4983195;28;20402;-75
2022/09/18 00:46:00;;;;;;;6.82;1.20;;;;;;;10.96;100.00;101290.28;4982373;28;20026;-74
2022/09/18 00:48:52;;;;;;;5.93;1.42;;;;;;;10.94;100.00;101289.59;4985838;28;20033;-75
2022/09/18 00:51:18;;;;;;;6.82;1.40;;;;;;;10.96;99.61;101288.47;4972098;28;20050;-75
2022/09/18 00:53:49;;;;;;;4.70;1.30;;;;;;;10.91;99.83;101294.13;4984087;28;20041;-75
2022/09/18 00:56:15;;;;;;;10.18;1.35;;;;;;;10.91;99.90;101288.13;4983698;28;20125;-75
2022/09/18 00:58:42;;;;;;;8.73;1.40;;;;;;;10.83;100.00;101296.63;4980279;28;20711;-75
2022/09/18 01:01:07;;;;;;;7.40;1.83;;;;;;;10.95;100.00;101301.63;4966430;28;20026;-73
2022/09/18 01:03:34;;;;;;;6.78;1.48;;;;;;;10.91;99.36;101307.09;4976699;28;20096;-75
2022/09/18 01:06:02;;;;;;;6.93;1.33;;;;;;;10.90;99.32;101304.66;4980042;28;20042;-75
2022/09/18 01:08:27;;;;;;;7.88;1.65;;;;;;;10.87;99.34;101308.34;4968840;28;20034;-74
2022/09/18 01:11:19;;;;;;;4.15;1.08;;;;;;;10.87;99.22;101304.94;4998318;28;20126;-74
2022/09/18 01:13:52;;;;;;;11.15;1.42;;;;;;;10.83;99.58;101299.25;4972299;28;20038;-74
2022/09/18 01:16:27;;;;;;;6.15;1.10;;;;;;;10.82;99.51;101305.38;4998542;28;20034;-76
2022/09/18 01:19:14;;;;;;;4.88;0.90;;;;;;;10.85;99.27;101315.47;4986695;28;21916;-73
2022/09/18 01:22:13;;;;;;;4.18;1.13;;;;;;;10.87;99.32;101317.94;4981960;28;20170;-75
2022/09/18 01:25:22;;;;;;;8.00;1.10;;;;;;;10.86;99.67;101298.94;4963982;28;20056;-76
2022/09/18 01:28:10;;;;;;;5.53;0.88;;;;;;;10.88;99.99;101304.78;4981289;28;20022;-74
2022/09/18 01:30:40;;;;;;;5.88;1.65;;;;;;;10.83;100.00;101301.00;4965048;28;20125;-74
2022/09/18 01:33:13;;;;;;;9.30;1.05;;;;;;;10.92;100.00;101294.94;4984444;28;20113;-76
2022/09/18 01:35:42;;;;;;;;;;;;;;;10.81;100.00;101295.13;4982938;28;20510;-77
2022/09/18 01:38:18;;;;;;;10.32;1.40;;;;;;;10.87;100.00;101289.38;4981774;28;20003;-76
2022/09/18 01:40:47;;;;;;;12.27;1.27;;;;;;;10.87;100.00;101284.19;4999063;28;20038;-77
2022/09/18 01:43:15;;;;;;;4.82;1.40;;;;;;;10.80;100.00;101289.13;4977842;28;20616;-74
2022/09/18 01:45:45;;;;;;;6.28;1.20;;;;;;;10.81;100.00;101282.16;4968012;28;20034;-77
2022/09/18 01:48:23;;;;;;;8.07;1.40;;;;;;;10.76;100.00;101287.00;4969763;28;20026;-75
2022/09/18 01:50:57;;;;;;;7.18;2.65;;;;;;;10.78;100.00;101296.25;4983333;28;20052;-77
2022/09/18 01:53:29;;;;;;;4.55;1.40;;;;;;;10.78;100.00;101295.44;4981725;28;20160;-77
2022/09/18 01:56:14;;;;;;;8.55;2.10;;;;;;;10.80;100.00;101293.53;4983993;28;20531;-75
2022/09/18 01:58:41;;;;;;;4.85;1.65;;;;;;;10.73;100.00;101295.88;4968596;28;20038;-75
2022/09/18 02:01:14;;;;;;;6.90;1.95;;;;;;;10.79;100.00;101295.28;4985647;28;20542;-76
2022/09/18 02:03:53;;;;;;;;;;;;;;;10.79;100.00;101297.88;4983152;28;20062;-74
2022/09/18 02:06:28;;;;;;;6.85;2.30;;;;;;;10.77;100.00;101299.00;4980351;28;19945;-74
2022/09/18 02:08:57;;;;;;;8.27;2.33;;;;;;;10.88;100.00;101298.78;4983360;28;20118;-76
2022/09/18 02:11:23;;;;;;;7.35;2.97;;;;;;;10.86;100.00;101300.72;4967565;28;20057;-77
2022/09/18 02:13:48;;;;;;;7.97;2.45;;;;;;;10.81;100.00;101292.53;4980758;28;20491;-76
2022/09/18 02:16:23;;;;;;;12.02;2.90;;;;;;;10.73;100.00;101292.47;4965583;28;20041;-78
2022/09/18 02:18:55;;;;;;;6.05;2.60;;;;;;;10.80;100.00;101296.91;4965727;28;20038;-77
2022/09/18 02:21:29;;;;;;;9.70;2.88;;;;;;;10.83;100.00;101298.41;4968689;28;20533;-78
2022/09/18 02:24:06;;;;;;;12.45;3.85;;;;;;;10.74;100.00;101291.47;4964938;28;20070;-77
2022/09/18 02:26:34;;;;;;;7.05;3.03;;;;;;;10.69;100.00;101294.53;4967905;28;20034;-78
2022/09/18 02:29:01;;;;;;;7.32;2.78;;;;;;;10.76;100.00;101284.41;4999359;28;20030;-77
2022/09/18 02:31:27;;;;;;;9.27;3.08;;;;;;;10.75;100.00;101285.34;4978542;28;20386;-81
2022/09/18 02:33:53;;;;;;;8.85;2.78;;;;;;;10.68;100.00;101275.56;4964746;28;20611;-77
2022/09/18 02:36:49;;;;;;;9.25;2.78;;;;;;;10.63;100.00;101277.75;4982376;28;20026;-77
2022/09/18 02:39:51;;;;;;;5.25;2.70;;;;;;;10.67;100.00;101278.28;4967448;28;20770;-78
2022/09/18 02:42:54;;;;;;;7.20;2.72;;;;;;;10.62;100.00;101285.69;4984261;28;20053;-79
2022/09/18 02:45:47;;;;;;;5.53;3.00;;;;;;;10.62;100.00;101276.13;4983884;28;20037;-79
2022/09/18 02:48:31;;;;;;;;;;;;;;;10.64;100.00;101274.22;4984551;28;20037;-76
2022/09/18 02:51:17;;;;;;;9.23;2.85;;;;;;;10.62;100.00;101275.31;4980204;28;20984;-78
2022/09/18 02:53:54;;;;;;;8.02;2.63;;;;;;;10.68;100.00;101270.38;4983265;28;20034;-78
2022/09/18 02:56:44;;;;;;;7.95;3.00;;;;;;;10.57;100.00;101267.13;4964424;28;20035;-77
2022/09/18 02:59:28;;;;;;;10.95;2.60;;;;;;;10.61;100.00;101266.72;4966224;28;20030;-78
2022/09/18 03:01:57;;;;;;;11.45;3.08;;;;;;;10.67;100.00;101273.09;4968982;28;20073;-79
2022/09/18 03:04:26;;;;;;;8.68;2.88;;;;;;;10.60;100.00;101274.63;4980747;28;20056;-78
2022/09/18 03:07:06;;;;;;;10.77;2.25;;;;;;;10.63;100.00;101269.19;4986641;28;20042;-78
2022/09/18 03:09:39;;;;;;;11.45;3.00;;;;;;;10.57;100.00;101278.34;4983522;28;20041;-80
2022/09/18 03:12:04;;;;;;;5.68;2.60;;;;;;;10.62;100.00;101275.31;4973191;28;20034;-77
2022/09/18 03:14:35;;;;;;;10.32;2.40;;;;;;;10.59;100.00;101275.63;4974873;28;20042;-80
2022/09/18 03:17:01;;;;;;;4.30;2.00;;;;;;;10.64;100.00;101275.97;4971137;28;20034;-80
2022/09/18 03:19:27;;;;;;;7.32;2.22;;;;;;;10.67;100.00;101279.09;4984776;28;20065;-78
2022/09/18 03:21:55;;;;;;;7.88;2.15;;;;;;;10.69;100.00;101278.97;4984750;28;20668;-76
2022/09/18 03:24:24;;;;;;;6.00;1.70;;;;;;;10.65;100.00;101275.84;4971986;28;20026;-80
2022/09/18 03:26:51;;;;;;;6.95;2.30;;;;;;;10.60;100.00;101275.44;4987954;28;20981;-78
2022/09/18 03:29:17;;;;;;;8.45;1.88;;;;;;;10.66;100.00;101268.88;4987130;28;20380;-78
2022/09/18 03:31:43;;;;;;;4.65;1.83;;;;;;;10.65;100.00;101269.84;4987799;28;20034;-79
2022/09/18 03:34:09;;;;;;;7.22;1.30;;;;;;;10.71;100.00;101270.06;4968060;28;20138;-76
2022/09/18 03:36:36;;;;;;;6.88;1.65;;;;;;;10.57;100.00;101275.75;4986133;28;20034;-76
2022/09/18 03:39:02;;;;;;;10.25;2.53;;;;;;;10.55;100.00;101277.69;4987209;28;20034;-78
2022/09/18 03:41:28;;;;;;;5.93;1.55;;;;;;;10.44;100.00;101268.31;4969684;28;20509;-79
2022/09/18 03:43:55;;;;;;;5.35;1.65;;;;;;;10.48;100.00;101263.66;4984290;28;20038;-77
2022/09/18 03:46:22;;;;;;;7.05;2.50;;;;;;;10.52;100.00;101259.81;4971122;28;20050;-77
2022/09/18 03:48:50;;;;;;;6.65;1.33;;;;;;;10.49;100.00;101265.28;4973644;28;20044;-78
2022/09/18 03:51:17;;;;;;;6.07;1.58;;;;;;;10.48;100.00;101261.06;4988151;28;20061;-75
2022/09/18 03:53:47;;;;;;;7.30;2.22;;;;;;;10.41;100.00;101260.81;4987534;28;20357;-78
2022/09/18 03:56:31;;;;;;;12.25;3.42;;;;;;;10.39;100.00;101264.50;4979705;28;20567;-79
2022/09/18 03:59:15;;;;;;;12.93;3.03;;;;;;;10.52;100.00;101265.00;4987589;28;20057;-79
2022/09/18 04:02:01;;;;;;;10.27;2.60;;;;;;;10.41;100.00;101255.63;4984969;28;20040;-78
2022/09/18 04:04:28;;;;;;;10.05;2.63;;;;;;;10.50;100.00;101248.75;4986777;28;20047;-77
2022/09/18 04:07:02;;;;;;;8.27;2.78;;;;;;;10.51;100.00;101248.63;4989138;28;20040;-78
2022/09/18 04:09:54;;;;;;;8.75;3.40;;;;;;;10.51;100.00;101251.22;4972887;28;20030;-79
2022/09/18 04:12:19;;;;;;;9.90;2.80;;;;;;;10.50;100.00;101251.34;4983926;28;20030;-79
2022/09/18 04:15:02;;;;;;;6.47;2.70;;;;;;;10.55;100.00;101249.16;4975477;28;20049;-76
2022/09/18 04:17:28;;;;;;;9.63;3.55;;;;;;;10.61;100.00;101261.53;4988477;28;20030;-78
2022/09/18 04:19:53;;;;;;;8.60;3.72;;;;;;;10.57;100.00;101256.75;4970878;28;20438;-77
2022/09/18 04:22:20;;;;;;;10.07;4.72;;;;;;;10.54;100.00;101257.88;4986533;28;20042;-78
2022/09/18 04:24:49;;;;;;;10.50;4.72;;;;;;;10.56;100.00;101255.97;4984116;28;20037;-77
2022/09/18 04:27:15;;;;;;;15.13;5.15;;;;;;;10.58;100.00;101250.63;4984930;28;20038;-79
2022/09/18 04:29:40;;;;;;;16.60;5.10;;;;;;;10.56;100.00;101253.38;4985363;28;20061;-80
2022/09/18 04:32:08;;;;;;;9.35;4.45;;;;;;;10.60;100.00;101249.50;4969166;28;20036;-78
2022/09/18 04:34:34;;;;;;;11.15;4.63;;;;;;;10.58;100.00;101248.84;4984571;28;20057;-78
2022/09/18 04:37:00;;;;;;;10.02;4.93;;;;;;;10.62;100.00;101249.38;4988100;28;20092;-80
2022/09/18 04:39:31;;;;;;;14.77;5.10;;;;;;;10.61;100.00;101253.75;4986484;28;20038;-76
2022/09/18 04:41:59;;;;;;;10.50;4.60;;;;;;;10.57;100.00;101256.75;4987655;28;20096;-78
2022/09/18 04:44:25;;;;;;;6.63;4.32;;;;;;;10.53;100.00;101251.09;4985146;28;20406;-78
2022/09/18 04:46:51;;;;;;;17.73;4.68;;;;;;;10.58;100.00;101248.84;4982531;28;20034;-78
2022/09/18 04:49:17;;;;;;;6.88;3.97;;;;;;;10.65;100.00;101255.09;4983495;28;20443;-79
2022/09/18 04:51:43;;;;;;;12.38;4.95;;;;;;;10.54;100.00;101249.28;4986323;28;20479;-77
2022/09/18 04:54:09;;;;;;;10.15;4.15;;;;;;;10.60;100.00;101249.50;4971754;28;20122;-77
2022/09/18 04:56:36;;;;;;;13.75;4.50;;;;;;;10.68;100.00;101246.19;4982848;28;20053;-78
2022/09/18 04:59:02;;;;;;;8.35;4.15;;;;;;;10.74;100.00;101237.84;4987559;28;20030;-78
2022/09/18 05:01:28;;;;;;;10.02;3.35;;;;;;;10.62;100.00;101242.41;4984732;28;20528;-78
2022/09/18 05:03:57;;;;;;;11.95;4.30;;;;;;;10.63;100.00;101238.88;4987101;28;20034;-77
2022/09/18 05:06:32;;;;;;;14.20;4.80;;;;;;;10.70;100.00;101237.31;4974624;28;20431;-77
2022/09/18 05:08:59;;;;;;;10.43;3.20;;;;;;;10.74;100.00;101247.38;4971898;28;20027;-77
2022/09/18 05:11:25;;;;;;;6.25;2.78;;;;;;;10.67;100.00;101236.78;4986442;28;20080;-78
2022/09/18 05:13:55;;;;;;;7.15;2.58;;;;;;;10.63;100.00;101235.47;4985762;28;20038;-78
2022/09/18 05:16:23;;;;;;;3.97;2.55;;;;;;;10.68;100.00;101243.59;4983048;28;20035;-78
2022/09/18 05:19:08;;;;;;;7.05;2.47;;;;;;;10.72;100.00;101247.56;4982207;28;20098;-78
2022/09/18 05:21:34;;;;;;;9.38;2.00;;;;;;;10.73;100.00;101246.59;4963677;28;20038;-77
2022/09/18 05:23:59;;;;;;;8.68;2.13;;;;;;;10.81;100.00;101245.84;4972405;28;20042;-77
2022/09/18 05:26:25;;;;;;;5.40;1.77;;;;;;;10.78;100.00;101246.16;4983449;28;20101;-77
2022/09/18 05:28:56;;;;;;;9.32;2.53;;;;;;;10.76;100.00;101243.72;4970957;28;20033;-77
2022/09/18 05:31:22;;;;;;;11.35;1.92;;;;;;;10.66;100.00;101246.38;4987281;28;20034;-78
2022/09/18 05:33:47;;;;;;;7.80;1.98;;;;;;;10.70;100.00;101247.69;4972600;28;20045;-76
2022/09/18 05:36:13;;;;;;;8.35;1.95;;;;;;;10.74;100.00;101252.56;4969192;28;20072;-77
2022/09/18 05:38:39;;;;;;;6.63;1.90;;;;;;;10.74;100.00;101240.44;4987126;28;20124;-78
2022/09/18 05:41:08;;;;;;;7.80;1.40;;;;;;;10.66;100.00;101243.78;4986813;28;20030;-78
2022/09/18 05:43:33;;;;;;;7.30;1.58;;;;;;;10.70;100.00;101249.47;4988319;28;20038;-76
2022/09/18 05:46:00;;;;;;;6.80;1.48;;;;;;;10.70;100.00;101252.09;4985162;28;20034;-76
2022/09/18 05:48:37;;;;;;;4.50;1.65;;;;;;;10.60;100.00;101256.50;4986932;28;20057;-78
2022/09/18 05:51:05;;;;;;;5.50;1.60;;;;;;;10.61;100.00;101264.13;4983720;28;20061;-77
2022/09/18 05:53:31;;;;;;;11.00;1.67;;;;;;;10.79;100.00;101258.16;4970080;28;20054;-78
2022/09/18 05:56:17;;;;;;;9.65;1.92;;;;;;;10.79;100.00;101255.56;4986086;28;20045;-78
2022/09/18 05:58:43;;;;;;;9.73;1.52;;;;;;;10.95;100.00;101254.91;4966082;28;20026;-77
2022/09/18 06:01:10;;;;;;;5.55;1.23;;;;;;;10.86;100.00;101261.78;4986780;28;20027;-77
2022/09/18 06:03:54;;;;;;;5.50;1.38;;;;;;;10.86;100.00;101252.22;4981645;28;20506;-77
2022/09/18 06:06:21;;;;;;;5.25;1.27;;;;;;;10.78;100.00;101256.53;4968220;28;20027;-77
2022/09/18 06:08:48;;;;;;;14.05;1.83;;;;;;;10.86;100.00;101252.22;4984770;28;20049;-78
2022/09/18 06:11:14;;;;;;;9.60;1.67;;;;;;;10.87;100.00;101258.25;4979504;28;20342;-77
2022/09/18 06:13:40;;;;;;;4.35;1.00;;;;;;;10.93;100.00;101255.06;4969294;28;20045;-77
2022/09/18 06:16:05;;;;;;;5.75;1.60;;;;;;;10.84;100.00;101259.34;4982928;28;20037;-77
2022/09/18 06:18:47;;;;;;;6.07;1.52;;;;;;;10.93;100.00;101260.25;4983116;28;20045;-77
2022/09/18 06:21:13;;;;;;;9.02;1.95;;;;;;;10.96;100.00;101252.16;4967271;28;20026;-76
2022/09/18 06:23:41;;;;;;;10.50;2.30;;;;;;;10.97;100.00;101251.22;4965113;28;20501;-77
2022/09/18 06:26:14;;;;;;;7.68;1.90;;;;;;;10.88;100.00;101252.91;4969553;28;20035;-76
2022/09/18 06:28:40;;;;;;;16.23;2.78;;;;;;;10.95;100.00;101252.34;4985492;28;20045;-77
2022/09/18 06:31:08;;;;;;;10.32;2.75;;;;;;;11.01;100.00;101255.13;4984460;28;20518;-76
2022/09/18 06:33:56;;;;;;;12.27;4.07;;;;;;;10.98;100.00;101257.19;4969034;28;20042;-77
2022/09/18 06:36:22;;;;;;;12.18;5.07;;;;;;;10.95;100.00;101258.31;4967469;28;20035;-76
2022/09/18 06:39:13;;;;;;;12.10;4.35;;;;;;;11.01;100.00;101259.50;4970517;28;20041;-77
2022/09/18 06:41:39;;;;;;;11.40;2.47;;;;;;;10.99;100.00;101253.66;4983613;28;20027;-77
2022/09/18 06:44:16;;;;;;;13.55;5.85;;;;;;;11.01;100.00;101255.13;4966571;28;20046;-77
2022/09/18 06:46:46;;;;;;;16.40;4.07;;;;;;;11.02;100.00;101261.13;4967341;28;20038;-78
2022/09/18 06:49:23;;;;;;;13.68;2.40;;;;;;;10.98;100.00;101258.03;4977856;28;20512;-80
2022/09/18 06:51:48;;;;;;;11.07;2.63;;;;;;;11.09;100.00;101257.81;4963628;28;20038;-77
2022/09/18 06:54:15;;;;;;;11.70;1.98;;;;;;;11.05;100.00;101247.88;4984033;28;20030;-79
2022/09/18 06:56:42;;;;;;;8.85;2.30;;;;;;;11.13;100.00;101250.53;4983669;28;20031;-78
2022/09/18 06:59:10;;;;;;;6.75;2.20;;;;;;;11.17;100.00;101243.28;4971338;28;20033;-78
2022/09/18 07:01:36;;;;;;;23.15;9.02;;;;;;;11.29;100.00;101250.69;4982966;28;20483;-77
2022/09/18 07:04:12;;;;;;;46.10;16.10;;;;;;;11.23;100.00;101255.66;4982383;28;20037;-75
2022/09/18 07:06:46;;;;;;;38.60;14.57;;;;;;;11.19;100.00;101249.97;4981881;28;20165;-77
2022/09/18 07:09:13;;;;;;;24.00;10.15;;;;;;;11.18;100.00;101256.09;4968388;28;20086;-77
2022/09/18 07:11:57;;;;;;;18.40;7.05;;;;;;;11.26;100.00;101245.81;4984384;28;20042;-77
2022/09/18 07:14:31;;;;;;;26.95;8.77;;;;;;;11.39;100.00;101247.19;4967704;28;20530;-77
2022/09/18 07:17:11;;;;;;;29.35;11.95;;;;;;;11.44;100.00;101245.78;4984828;28;20044;-77
2022/09/18 07:19:37;;;;;;;27.40;9.77;;;;;;;11.47;100.00;101250.69;4982492;28;20068;-77
2022/09/18 07:22:03;;;;;;;55.10;18.48;;;;;;;11.55;100.00;101246.50;4961932;28;20044;-77
2022/09/18 07:24:35;;;;;;;41.60;13.38;;;;;;;11.68;100.00;101239.94;4980654;28;20034;-77
2022/09/18 07:27:01;;;;;;;40.40;13.82;;;;;;;11.78;100.00;101232.03;4966065;28;20030;-76
2022/09/18 07:29:27;;;;;;;17.23;6.80;;;;;;;11.87;100.00;101240.72;4984334;28;20721;-76
2022/09/18 07:31:55;;;;;;;6.72;2.10;;;;;;;11.87;100.00;101233.72;4984141;28;20034;-76
2022/09/18 07:34:20;;;;;;;8.65;2.10;;;;;;;11.92;100.00;101235.88;4980764;28;20039;-79
2022/09/18 07:36:49;;;;;;;8.30;2.67;;;;;;;11.95;100.00;101222.59;4968106;28;20038;-73
2022/09/18 07:39:15;;;;;;;10.63;3.40;;;;;;;12.00;100.00;101228.16;4977284;28;20026;-77
2022/09/18 07:41:59;;;;;;;14.15;6.75;;;;;;;12.14;100.00;101220.72;4980692;28;20423;-76
2022/09/18 07:44:26;;;;;;;12.93;4.35;;;;;;;12.26;100.00;101230.72;4975916;28;20038;-75
2022/09/18 07:46:54;;;;;;;6.82;3.67;;;;;;;12.32;99.42;101231.03;4979729;28;20038;-76
2022/09/18 07:49:20;;;;;;;13.45;3.90;;;;;;;12.29;99.86;101232.16;4981569;28;20038;-76
2022/09/18 07:51:46;;;;;;;12.88;5.43;;;;;;;12.30;99.19;101240.78;4982332;28;20038;-77
2022/09/18 07:54:13;;;;;;;13.73;4.85;;;;;;;12.28;98.96;101235.72;4994089;28;20162;-75
2022/09/18 07:56:50;;;;;;;9.75;3.40;;;;;;;12.22;100.00;101229.41;4982680;28;20035;-76
2022/09/18 07:59:19;;;;;;;18.23;5.28;;;;;;;12.30;99.78;101226.00;4964121;28;20515;-79
2022/09/18 08:01:51;;;;;;;24.00;9.02;;;;;;;12.23;99.12;101215.41;4967039;28;20069;-77
2022/09/18 08:04:17;;;;;;;21.50;6.75;;;;;;;12.31;98.80;101221.63;4967284;28;20034;-73
2022/09/18 08:07:05;;;;;;;10.23;3.05;;;;;;;12.22;99.07;101232.00;4971479;28;20054;-76
2022/09/18 08:09:50;;;;;;;32.80;12.43;;;;;;;12.28;99.26;101243.53;4978109;28;20039;-78
2022/09/18 08:12:34;;;;;;;9.13;2.53;;;;;;;12.18;99.24;101242.84;4985217;28;20162;-77
2022/09/18 08:15:08;;;;;;;10.27;1.92;;;;;;;12.21;99.31;101238.16;4984168;28;20813;-76
2022/09/18 08:17:52;;;;;;;8.27;1.70;;;;;;;12.26;100.00;101238.50;4980690;28;20430;-76
2022/09/18 08:20:28;;;;;;;12.52;2.30;;;;;;;12.39;100.00;101245.84;4996705;28;20046;-71
2022/09/18 08:23:08;;;;;;;11.20;1.80;;;;;;;12.21;100.00;101248.56;4984151;28;20038;-73
2022/09/18 08:25:36;;;;;;;4.13;1.65;;;;;;;12.27;100.00;101242.72;4980813;28;20162;-79
2022/09/18 08:28:03;;;;;;;12.43;5.55;;;;;;;12.23;100.00;101251.00;4968289;28;20038;-74
2022/09/18 08:30:37;;;;;;;13.05;3.53;;;;;;;12.21;100.00;101256.34;4970378;28;20089;-77
2022/09/18 08:33:08;;;;;;;8.80;4.57;;;;;;;12.15;100.00;101243.97;4983065;28;20491;-76
2022/09/18 08:35:33;;;;;;;7.22;2.30;;;;;;;12.14;100.00;101250.13;4984165;28;20270;-75
2022/09/18 08:38:10;;;;;;;6.50;2.85;;;;;;;12.08;100.00;101251.56;4971093;28;20118;-77
2022/09/18 08:40:59;;;;;;;6.18;2.50;;;;;;;12.07;100.00;101257.75;4970559;28;20125;-77
2022/09/18 08:43:55;;;;;;;10.63;3.55;;;;;;;12.15;100.00;101249.19;5001161;28;20038;-77
2022/09/18 08:46:53;;;;;;;7.88;3.45;;;;;;;12.17;100.00;101236.03;4967653;28;20144;-76
2022/09/18 08:49:36;;;;;;;9.00;3.50;;;;;;;12.18;100.00;101235.03;4963769;28;20101;-78
2022/09/18 08:52:19;;;;;;;6.38;3.80;;;;;;;12.18;100.00;101238.44;4985714;28;20407;-77
2022/09/18 08:55:01;;;;;;;8.20;4.22;;;;;;;12.18;100.00;101230.66;4972464;28;20578;-78
2022/09/18 08:57:45;;;;;;;8.38;4.30;;;;;;;12.29;100.00;101226.16;4985940;28;20109;-77
2022/09/18 09:00:30;;;;;;;7.55;4.00;;;;;;;12.39;100.00;101230.25;4972212;28;20387;-78
2022/09/18 09:03:44;;;;;;;12.10;4.10;;;;;;;12.54;100.00;101233.06;4972645;28;20104;-77
2022/09/18 09:06:52;;;;;;;9.77;3.42;;;;;;;12.73;100.00;101225.94;4986674;28;20031;-76
2022/09/18 09:09:34;;;;;;;6.93;2.83;;;;;;;12.85;100.00;101232.50;4981399;28;20060;-78
2022/09/18 09:12:02;;;;;;;8.88;3.15;;;;;;;12.65;100.00;101240.56;4983124;28;20053;-74
2022/09/18 09:14:55;;;;;;;7.93;2.65;;;;;;;12.53;100.00;101244.44;4968639;28;20042;-80
2022/09/18 09:17:34;;;;;;;9.55;2.75;;;;;;;12.41;100.00;101243.09;5002646;28;20113;-76
2022/09/18 09:20:29;;;;;;;7.32;2.90;;;;;;;12.39;100.00;101253.66;4970249;28;20034;-79
2022/09/18 09:23:12;;;;;;;11.52;3.03;;;;;;;12.23;100.00;101249.22;4978818;28;20561;-78
2022/09/18 09:26:04;;;;;;;7.28;2.65;;;;;;;12.05;100.00;101236.31;4984946;28;20069;-80
2022/09/18 09:29:05;;;;;;;3.08;2.33;;;;;;;11.99;100.00;101233.50;4999437;28;20218;-77
2022/09/18 09:32:03;;;;;;;14.15;4.95;;;;;;;12.05;100.00;101222.47;4985539;28;20133;-80
2022/09/18 09:34:47;;;;;;;14.85;7.05;;;;;;;11.95;100.00;101224.38;4984448;28;20117;-79
2022/09/18 09:37:42;;;;;;;16.63;7.00;;;;;;;11.96;100.00;101221.63;4983554;28;20484;-78
2022/09/18 09:40:18;;;;;;;8.90;3.03;;;;;;;11.86;100.00;101219.09;4970029;28;20404;-78
2022/09/18 09:42:58;;;;;;;4.15;2.50;;;;;;;11.94;100.00;101207.16;4972649;28;20038;-79
2022/09/18 09:45:37;;;;;;;5.55;2.35;;;;;;;12.02;100.00;101213.22;4971995;28;20095;-78
2022/09/18 09:48:29;;;;;;;5.60;2.33;;;;;;;12.10;100.00;101220.22;4988076;28;20042;-78
2022/09/18 09:51:16;;;;;;;5.35;2.38;;;;;;;12.11;100.00;101215.84;4978380;28;20053;-78
2022/09/18 09:53:42;;;;;;;9.38;2.53;;;;;;;12.07;100.00;101217.94;4968936;28;20034;-77
2022/09/18 09:56:14;;;;;;;8.60;2.53;;;;;;;12.07;100.00;101220.53;4968916;28;20030;-76
2022/09/18 09:58:55;;;;;;;6.40;2.78;;;;;;;12.11;100.00;101215.84;4971289;28;20030;-76
2022/09/18 10:01:26;;;;;;;11.13;3.63;;;;;;;12.31;100.00;101211.22;4984483;28;20042;-75
2022/09/18 10:04:11;;;;;;;10.55;4.28;;;;;;;12.50;100.00;101205.75;4985038;28;20407;-74
2022/09/18 10:06:55;;;;;;;7.35;2.83;;;;;;;12.52;100.00;101197.78;4971177;28;20032;-76
2022/09/18 10:09:31;;;;;;;4.95;2.60;;;;;;;12.60;100.00;101197.78;4993365;28;20053;-74
2022/09/18 10:12:28;;;;;;;7.10;3.60;;;;;;;12.60;100.00;101197.78;4985701;28;20030;-77
2022/09/18 10:15:18;;;;;;;9.15;2.65;;;;;;;12.56;100.00;101202.50;4973528;28;20513;-77
2022/09/18 10:17:47;;;;;;;9.93;3.15;;;;;;;12.64;100.00;101197.31;4993993;28;20034;-78
2022/09/18 10:20:16;;;;;;;9.50;2.63;;;;;;;12.53;100.00;101195.03;4987376;28;20066;-77
2022/09/18 10:22:45;;;;;;;9.45;3.97;;;;;;;12.57;100.00;101188.53;4966687;28;20027;-74
2022/09/18 10:25:37;;;;;;;8.27;2.10;;;;;;;12.54;100.00;101188.84;4968465;28;20462;-77
2022/09/18 10:28:02;;;;;;;7.80;2.92;;;;;;;12.56;99.30;101189.50;4987241;28;20030;-77
2022/09/18 10:30:30;;;;;;;3.72;2.15;;;;;;;12.64;98.88;101179.13;4976226;28;20073;-77
2022/09/18 10:32:56;;;;;;;5.50;2.28;;;;;;;12.55;99.41;101185.28;4974340;28;20735;-77
2022/09/18 10:35:29;;;;;;;2.78;1.70;;;;;;;12.58;99.66;101184.13;4973067;28;20052;-72
2022/09/18 10:37:57;;;;;;;7.70;1.85;;;;;;;12.49;98.87;101185.91;4969607;28;20133;-77
2022/09/18 10:40:40;;;;;;;13.65;7.00;;;;;;;12.63;99.49;101184.47;4976272;28;20046;-76
2022/09/18 10:43:16;;;;;;;9.85;3.05;;;;;;;12.63;99.50;101174.88;4964340;28;20503;-75
2022/09/18 10:45:51;;;;;;;6.35;3.40;;;;;;;12.75;98.48;101177.16;4979058;28;20044;-77
2022/09/18 10:48:26;;;;;;;;;;;;;;;12.74;98.11;101178.16;4986702;28;20617;-77
2022/09/18 10:50:56;;;;;;;4.45;2.38;;;;;;;12.79;97.80;101171.50;4988173;28;19922;-75
2022/09/18 10:53:31;;;;;;;3.75;2.08;;;;;;;12.79;96.82;101174.09;4986403;28;20037;-73
2022/09/18 10:56:16;;;;;;;3.88;2.20;;;;;;;12.79;97.62;101171.50;4987046;28;20046;-76
2022/09/18 10:58:42;;;;;;;6.63;2.88;;;;;;;12.84;98.06;101177.00;4988054;28;20027;-76
2022/09/18 11:01:09;;;;;;;6.53;1.83;;;;;;;12.77;96.87;101170.00;4985952;28;20438;-76
2022/09/18 11:04:01;;;;;;;5.05;1.75;;;;;;;12.82;97.36;101178.16;4967893;28;20037;-77
2022/09/18 11:06:33;;;;;;;4.05;1.60;;;;;;;12.82;97.94;101167.75;4971124;28;20037;-76
2022/09/18 11:09:09;;;;;;;4.13;1.70;;;;;;;12.78;96.15;101169.06;4973631;28;20700;-79
2022/09/18 11:11:43;;;;;;;3.33;1.88;;;;;;;12.75;96.59;101169.38;4965360;28;20030;-71
2022/09/18 11:14:24;;;;;;;5.20;1.60;;;;;;;12.98;96.04;101166.97;4969781;28;20038;-75
2022/09/18 11:17:00;;;;;;;2.88;1.48;;;;;;;13.10;95.74;101159.63;4987003;28;20034;-78
2022/09/18 11:19:37;;;;;;;4.82;1.58;;;;;;;13.10;96.32;101160.44;4986455;28;20038;-75
2022/09/18 11:22:28;;;;;;;2.55;1.50;;;;;;;13.28;95.57;101151.63;4967234;28;20396;-75
2022/09/18 11:25:06;;;;;;;6.75;1.70;;;;;;;13.43;96.15;101144.81;4985337;28;20031;-77
2022/09/18 11:27:50;;;;;;;4.10;1.55;;;;;;;13.26;94.86;101154.41;4997789;28;20097;-76
2022/09/18 11:30:21;;;;;;;5.90;1.92;;;;;;;13.32;95.10;101158.97;4983221;28;20062;-77
2022/09/18 11:32:51;;;;;;;5.97;1.90;;;;;;;13.36;95.89;101156.88;4969434;28;20041;-76
2022/09/18 11:35:21;;;;;;;5.40;2.00;;;;;;;13.40;94.54;101161.56;4981250;28;20042;-74
2022/09/18 11:37:55;;;;;;;4.43;1.90;;;;;;;13.35;94.11;101157.81;4984834;28;20043;-78
2022/09/18 11:40:26;;;;;;;;;;;;;;;13.38;95.43;101155.72;4988619;28;20555;-77
2022/09/18 11:42:53;;;;;;;5.05;1.90;;;;;;;13.38;95.60;101153.09;5002494;28;20295;-73
2022/09/18 11:45:33;;;;;;;8.63;2.22;;;;;;;13.40;93.73;101147.75;4977328;28;20969;-76
2022/09/18 11:48:24;;;;;;;6.57;2.65;;;;;;;13.25;93.36;101152.78;4973573;28;20057;-76